Time;durP1;ratioP1;P1;durP2;ratioP2;P2;SDS_P1;SDS_P2;PMS_P1;PMS_P2;Temp;Humidity;BMP_temperature;BMP_pressure;BME280_temperature;BME280_humidity;BME280_pressure;Samples;Min_cycle;Max_cycle;Signal;HPM_P1;HPM_P2
2021/12/06 00:02:25;;;;;;;7.90;6.23;;;;;;;;;;5036103;28;20545;-68
2021/12/06 00:04:51;;;;;;;7.97;6.03;;;;;;;;;;5056287;28;20244;-69
2021/12/06 00:07:18;;;;;;;6.20;5.60;;;;;;;;;;5046184;28;20227;-68
2021/12/06 00:09:44;;;;;;;7.23;5.77;;;;;;;;;;5032521;28;20227;-71
2021/12/06 00:12:10;;;;;;;7.97;6.00;;;;;;;;;;5048637;28;20231;-67
2021/12/06 00:14:37;;;;;;;7.33;5.63;;;;;;;;;;5049732;28;20583;-69
2021/12/06 00:17:07;;;;;;;6.73;5.50;;;;;;;;;;5045825;28;20231;-68
2021/12/06 00:19:33;;;;;;;6.73;6.03;;;;;;;;;;5046575;28;20235;-69
2021/12/06 00:22:00;;;;;;;8.17;5.73;;;;;;;;;;5044401;28;20611;-71
2021/12/06 00:24:26;;;;;;;7.07;6.37;;;;;;;;;;5026039;28;20725;-69
2021/12/06 00:26:52;;;;;;;8.37;5.50;;;;;;;;;;5045299;28;20318;-69
2021/12/06 00:29:18;;;;;;;9.03;6.13;;;;;;;;;;5046287;28;20331;-68
2021/12/06 00:31:44;;;;;;;5.87;5.33;;;;;;;;;;5048300;28;20231;-69
2021/12/06 00:34:14;;;;;;;6.37;5.70;;;;;;;;;;5036411;28;20899;-67
2021/12/06 00:36:43;;;;;;;7.27;5.90;;;;;;;;;;5044567;28;20281;-69
2021/12/06 00:39:11;;;;;;;5.50;5.00;;;;;;;;;;5035663;28;21114;-69
2021/12/06 00:41:37;;;;;;;7.33;5.40;;;;;;;;;;5041796;28;20254;-69
2021/12/06 00:44:03;;;;;;;7.30;5.73;;;;;;;;;;5041713;28;21547;-69
2021/12/06 00:46:29;;;;;;;6.33;5.80;;;;;;;;;;5037951;28;20231;-69
2021/12/06 00:48:55;;;;;;;6.70;5.67;;;;;;;;;;5026988;28;20235;-69
2021/12/06 00:51:21;;;;;;;10.70;5.63;;;;;;;;;;5051426;28;20231;-69
2021/12/06 00:53:47;;;;;;;6.00;5.40;;;;;;;;;;5025307;28;20243;-68
2021/12/06 00:56:13;;;;;;;6.13;5.53;;;;;;;;;;5041680;28;20715;-69
2021/12/06 00:58:39;;;;;;;6.00;5.43;;;;;;;;;;5031121;28;20259;-68
2021/12/06 01:01:05;;;;;;;5.90;5.10;;;;;;;;;;5039462;28;20226;-69
2021/12/06 01:03:32;;;;;;;6.03;5.30;;;;;;;;;;5039355;28;20230;-69
2021/12/06 01:05:58;;;;;;;6.07;5.53;;;;;;;;;;5049890;28;21214;-69
2021/12/06 01:08:24;;;;;;;5.73;5.20;;;;;;;;;;5055083;28;20648;-70
2021/12/06 01:10:50;;;;;;;5.97;5.37;;;;;;;;;;5021664;28;20243;-69
2021/12/06 01:13:16;;;;;;;5.60;5.10;;;;;;;;;;5037412;28;20237;-68
2021/12/06 01:15:42;;;;;;;6.07;5.03;;;;;;;;;;5039127;28;23766;-68
2021/12/06 01:18:09;;;;;;;5.30;4.80;;;;;;;;;;5031397;28;20239;-68
2021/12/06 01:20:41;;;;;;;5.67;5.17;;;;;;;;;;5040459;28;20234;-69
2021/12/06 01:23:11;;;;;;;6.70;5.47;;;;;;;;;;5045181;28;20315;-68
2021/12/06 01:26:08;;;;;;;5.43;4.93;;;;;;;;;;5035884;28;20231;-68
2021/12/06 01:29:01;;;;;;;5.77;5.27;;;;;;;;;;5031565;28;20247;-68
2021/12/06 01:39:07;;;;;;;5.33;4.83;;;;;;;;;;5023062;28;20250;-68
2021/12/06 01:39:37;;;;;;;7.00;5.20;;;;;;;;;;5052374;28;20230;-68
2021/12/06 01:42:03;;;;;;;5.50;5.00;;;;;;;;;;5052599;28;21031;-69
2021/12/06 01:44:30;;;;;;;6.27;5.53;;;;;;;;;;5035653;28;20238;-69
2021/12/06 01:47:00;;;;;;;5.50;5.00;;;;;;;;;;5032969;28;20238;-68
2021/12/06 01:49:29;;;;;;;5.50;5.00;;;;;;;;;;5026190;28;20231;-69
2021/12/06 01:51:55;;;;;;;6.07;5.27;;;;;;;;;;5039328;28;20229;-69
2021/12/06 01:54:21;;;;;;;6.03;5.53;;;;;;;;;;5036538;28;20235;-69
2021/12/06 01:56:48;;;;;;;5.53;5.03;;;;;;;;;;5052308;28;20242;-69
2021/12/06 01:59:14;;;;;;;5.90;5.30;;;;;;;;;;5040089;28;20224;-69
2021/12/06 02:01:40;;;;;;;6.13;5.60;;;;;;;;;;5049399;28;20257;-68
2021/12/06 02:04:06;;;;;;;5.70;5.20;;;;;;;;;;5059229;28;20272;-70
2021/12/06 02:06:32;;;;;;;5.43;4.93;;;;;;;;;;5052485;28;20607;-68
2021/12/06 02:08:58;;;;;;;6.30;5.70;;;;;;;;;;5021251;28;20674;-70
2021/12/06 02:11:26;;;;;;;6.60;5.00;;;;;;;;;;5048087;28;20235;-68
2021/12/06 02:14:06;;;;;;;6.10;5.50;;;;;;;;;;5055045;28;20235;-68
2021/12/06 02:16:43;;;;;;;6.00;5.43;;;;;;;;;;5058587;28;20615;-68
2021/12/06 02:19:09;;;;;;;5.77;5.17;;;;;;;;;;5018497;28;20223;-68
2021/12/06 02:21:39;;;;;;;5.70;5.10;;;;;;;;;;5029397;28;20258;-70
2021/12/06 02:24:08;;;;;;;6.13;5.23;;;;;;;;;;5027539;28;20254;-68
2021/12/06 02:26:34;;;;;;;6.13;5.53;;;;;;;;;;5041530;28;20216;-68
2021/12/06 02:29:00;;;;;;;5.43;4.93;;;;;;;;;;5049202;28;20604;-67
2021/12/06 02:31:26;;;;;;;6.27;5.47;;;;;;;;;;5034052;28;22707;-69
2021/12/06 02:33:52;;;;;;;5.77;5.23;;;;;;;;;;5020769;28;20230;-69
2021/12/06 02:36:18;;;;;;;6.23;5.63;;;;;;;;;;5008811;28;20236;-69
2021/12/06 02:38:44;;;;;;;6.37;5.77;;;;;;;;;;5037477;28;20978;-69
2021/12/06 02:41:10;;;;;;;6.50;5.40;;;;;;;;;;5036974;28;20243;-69
2021/12/06 02:43:36;;;;;;;6.47;5.87;;;;;;;;;;5034516;28;20324;-68
2021/12/06 02:46:02;;;;;;;6.17;5.57;;;;;;;;;;5049807;28;20251;-68
2021/12/06 02:48:28;;;;;;;7.60;6.57;;;;;;;;;;5051742;28;20260;-68
2021/12/06 02:50:55;;;;;;;7.37;6.60;;;;;;;;;;5052218;28;20227;-68
2021/12/06 02:53:22;;;;;;;8.13;6.47;;;;;;;;;;5052042;28;20239;-68
2021/12/06 02:55:57;;;;;;;6.67;5.97;;;;;;;;;;5058738;28;20272;-68
2021/12/06 03:01:13;;;;;;;7.63;6.83;;;;;;;;;;5043751;28;20242;-69
2021/12/06 03:03:39;;;;;;;6.27;5.60;;;;;;;;;;5050536;28;20367;-70
2021/12/06 03:06:05;;;;;;;7.67;6.17;;;;;;;;;;5050887;28;20243;-69
2021/12/06 03:08:34;;;;;;;8.07;6.90;;;;;;;;;;5031712;28;20661;-68
2021/12/06 03:11:00;;;;;;;8.57;6.97;;;;;;;;;;5054043;28;20280;-68
2021/12/06 03:13:26;;;;;;;8.20;6.80;;;;;;;;;;5049022;28;20239;-68
2021/12/06 03:15:52;;;;;;;10.30;6.87;;;;;;;;;;5050020;28;20339;-68
2021/12/06 03:18:18;;;;;;;8.47;6.87;;;;;;;;;;5049805;28;20230;-68
2021/12/06 03:20:44;;;;;;;10.33;7.60;;;;;;;;;;5022149;28;20242;-68
2021/12/06 03:23:09;;;;;;;9.30;6.77;;;;;;;;;;5030764;28;20765;-68
2021/12/06 03:25:35;;;;;;;8.00;7.20;;;;;;;;;;5049263;28;20242;-68
2021/12/06 03:28:01;;;;;;;9.57;7.80;;;;;;;;;;5023340;28;20235;-68
2021/12/06 03:30:27;;;;;;;7.77;6.97;;;;;;;;;;5033032;28;20311;-69
2021/12/06 03:32:53;;;;;;;8.80;7.53;;;;;;;;;;5040936;28;20318;-68
2021/12/06 03:35:19;;;;;;;9.60;7.43;;;;;;;;;;5036853;28;20235;-68
2021/12/06 03:37:45;;;;;;;8.90;7.20;;;;;;;;;;5054209;28;20566;-68
2021/12/06 03:40:12;;;;;;;9.27;7.53;;;;;;;;;;5050047;28;20714;-68
2021/12/06 03:42:38;;;;;;;9.00;8.10;;;;;;;;;;5049114;28;20242;-69
2021/12/06 03:45:07;;;;;;;8.53;7.27;;;;;;;;;;5044502;28;20673;-68
2021/12/06 03:47:33;;;;;;;9.03;7.43;;;;;;;;;;5035685;28;20232;-68
2021/12/06 03:49:59;;;;;;;9.47;7.27;;;;;;;;;;5037638;28;20238;-68
2021/12/06 03:52:26;;;;;;;8.57;7.43;;;;;;;;;;5037603;28;20227;-69
2021/12/06 03:54:52;;;;;;;7.87;7.07;;;;;;;;;;5030712;28;20649;-69
2021/12/06 03:57:18;;;;;;;8.57;7.30;;;;;;;;;;5051194;28;20787;-69
2021/12/06 03:59:44;;;;;;;9.43;7.60;;;;;;;;;;5035759;28;20231;-70
2021/12/06 04:02:11;;;;;;;8.03;7.20;;;;;;;;;;5048986;28;20280;-69
2021/12/06 04:04:37;;;;;;;7.97;7.27;;;;;;;;;;5049444;28;20242;-69
2021/12/06 04:07:03;;;;;;;8.63;7.17;;;;;;;;;;5054485;28;20334;-68
2021/12/06 04:09:29;;;;;;;8.97;7.40;;;;;;;;;;5032867;28;20372;-68
2021/12/06 04:11:55;;;;;;;9.47;7.20;;;;;;;;;;5051004;28;20831;-68
2021/12/06 04:14:21;;;;;;;7.80;7.00;;;;;;;;;;5052633;28;22918;-67
2021/12/06 04:16:47;;;;;;;8.53;7.53;;;;;;;;;;5053935;28;20618;-69
2021/12/06 04:19:13;;;;;;;8.80;7.63;;;;;;;;;;5050764;28;20747;-69
2021/12/06 04:21:39;;;;;;;9.20;7.57;;;;;;;;;;5039688;28;20600;-67
2021/12/06 04:24:05;;;;;;;8.30;7.23;;;;;;;;;;5054374;28;20238;-68
2021/12/06 04:26:31;;;;;;;8.40;7.30;;;;;;;;;;5052044;28;20232;-68
2021/12/06 04:28:59;;;;;;;9.90;7.97;;;;;;;;;;5057162;28;20237;-68
2021/12/06 04:31:28;;;;;;;8.90;7.77;;;;;;;;;;5033762;28;22051;-69
2021/12/06 04:33:54;;;;;;;9.50;8.20;;;;;;;;;;5055230;28;20239;-68
2021/12/06 04:36:20;;;;;;;9.33;8.33;;;;;;;;;;5056261;28;20242;-68
2021/12/06 04:38:46;;;;;;;11.40;8.50;;;;;;;;;;5056278;28;20750;-68
2021/12/06 04:41:12;;;;;;;9.50;8.50;;;;;;;;;;5047606;28;20631;-68
2021/12/06 04:43:38;;;;;;;9.27;8.37;;;;;;;;;;5052795;28;21987;-69
2021/12/06 04:46:04;;;;;;;10.63;8.77;;;;;;;;;;5051265;28;20233;-69
2021/12/06 04:48:30;;;;;;;9.57;8.60;;;;;;;;;;5040124;28;20234;-68
2021/12/06 04:50:56;;;;;;;11.00;8.70;;;;;;;;;;5057788;28;20334;-67
2021/12/06 04:53:23;;;;;;;10.33;8.93;;;;;;;;;;5056677;28;20389;-68
2021/12/06 04:55:51;;;;;;;10.47;8.60;;;;;;;;;;5029644;28;20246;-69
2021/12/06 04:58:22;;;;;;;9.70;8.37;;;;;;;;;;5053596;28;20239;-68
2021/12/06 05:00:58;;;;;;;9.57;8.67;;;;;;;;;;5052857;28;20233;-67
2021/12/06 05:03:24;;;;;;;9.57;8.53;;;;;;;;;;5056103;28;20233;-68
2021/12/06 05:05:58;;;;;;;10.47;8.30;;;;;;;;;;5053902;28;20707;-69
2021/12/06 05:08:28;;;;;;;9.27;8.37;;;;;;;;;;5051709;28;20261;-68
2021/12/06 05:10:55;;;;;;;10.33;8.53;;;;;;;;;;5049260;28;20223;-68
2021/12/06 05:13:21;;;;;;;9.90;8.90;;;;;;;;;;5052910;28;20798;-68
2021/12/06 05:15:47;;;;;;;10.37;8.27;;;;;;;;;;5034724;28;20687;-69
2021/12/06 05:18:13;;;;;;;10.03;8.67;;;;;;;;;;5049011;28;20228;-68
2021/12/06 05:20:39;;;;;;;10.03;9.03;;;;;;;;;;5050047;28;20964;-68
2021/12/06 05:23:06;;;;;;;9.93;8.83;;;;;;;;;;5026102;28;20235;-69
2021/12/06 05:25:32;;;;;;;9.77;8.77;;;;;;;;;;5034568;28;20369;-69
2021/12/06 05:27:59;;;;;;;9.47;8.30;;;;;;;;;;5049709;28;20227;-68
2021/12/06 05:30:26;;;;;;;9.73;8.73;;;;;;;;;;5048247;28;20219;-69
2021/12/06 05:32:52;;;;;;;9.20;8.03;;;;;;;;;;5050536;28;20363;-68
2021/12/06 05:35:18;;;;;;;9.93;8.40;;;;;;;;;;5054003;28;21495;-69
2021/12/06 05:37:46;;;;;;;10.53;8.37;;;;;;;;;;5042802;28;20249;-68
2021/12/06 05:40:13;;;;;;;9.70;8.57;;;;;;;;;;5039999;28;20231;-68
2021/12/06 05:42:39;;;;;;;9.17;8.27;;;;;;;;;;5049854;28;20779;-68
2021/12/06 05:45:06;;;;;;;9.43;8.43;;;;;;;;;;5026118;28;20234;-69
2021/12/06 05:47:32;;;;;;;9.13;8.13;;;;;;;;;;5048634;28;20235;-69
2021/12/06 05:49:58;;;;;;;9.20;8.30;;;;;;;;;;5046659;28;20237;-69
2021/12/06 05:52:23;;;;;;;8.87;8.00;;;;;;;;;;5037578;28;20249;-71
2021/12/06 05:54:49;;;;;;;9.60;8.60;;;;;;;;;;5050390;28;20334;-69
2021/12/06 05:57:15;;;;;;;9.07;8.17;;;;;;;;;;5044749;28;20249;-68
2021/12/06 05:59:41;;;;;;;10.37;8.63;;;;;;;;;;5048321;28;20231;-70
2021/12/06 06:02:10;;;;;;;9.33;8.00;;;;;;;;;;5043988;28;20665;-70
2021/12/06 06:04:35;;;;;;;9.40;8.03;;;;;;;;;;5028352;28;20674;-69
2021/12/06 06:07:02;;;;;;;9.43;8.43;;;;;;;;;;5029154;28;20239;-70
2021/12/06 06:09:27;;;;;;;9.10;8.13;;;;;;;;;;5044619;28;20281;-70
2021/12/06 06:11:53;;;;;;;9.10;8.20;;;;;;;;;;5055154;28;20373;-69
2021/12/06 06:14:19;;;;;;;8.97;8.03;;;;;;;;;;5049426;28;20230;-73
2021/12/06 06:16:51;;;;;;;11.03;9.07;;;;;;;;;;5043140;28;20224;-68
2021/12/06 06:19:18;;;;;;;12.10;9.10;;;;;;;;;;5029517;28;20598;-67
2021/12/06 06:21:44;;;;;;;12.47;9.93;;;;;;;;;;5046126;28;20231;-70
2021/12/06 06:24:10;;;;;;;14.37;10.90;;;;;;;;;;5035542;28;20276;-67
2021/12/06 06:26:35;;;;;;;14.00;10.57;;;;;;;;;;5030859;28;20223;-69
2021/12/06 06:29:02;;;;;;;15.57;11.00;;;;;;;;;;5051224;28;20858;-68
2021/12/06 06:31:27;;;;;;;32.03;13.53;;;;;;;;;;5032744;28;20227;-69
2021/12/06 06:33:53;;;;;;;20.53;12.37;;;;;;;;;;5029198;28;20235;-69
2021/12/06 06:36:19;;;;;;;23.37;13.00;;;;;;;;;;5051682;28;20235;-68
2021/12/06 06:38:45;;;;;;;19.87;12.67;;;;;;;;;;5049254;27;20329;-68
2021/12/06 06:41:11;;;;;;;18.00;11.93;;;;;;;;;;5033946;28;20271;-68
2021/12/06 06:43:37;;;;;;;19.63;12.10;;;;;;;;;;5027455;28;20769;-68
2021/12/06 06:46:04;;;;;;;15.73;11.47;;;;;;;;;;5034528;28;20314;-68
2021/12/06 06:48:30;;;;;;;17.10;11.53;;;;;;;;;;5056253;28;20227;-69
2021/12/06 06:50:56;;;;;;;16.43;10.70;;;;;;;;;;5029048;28;20231;-68
2021/12/06 06:53:22;;;;;;;23.03;11.73;;;;;;;;;;5041333;28;20571;-69
2021/12/06 06:55:48;;;;;;;14.93;10.87;;;;;;;;;;5055678;28;20770;-68
2021/12/06 06:58:14;;;;;;;19.23;10.80;;;;;;;;;;5055924;28;20227;-69
2021/12/06 07:00:40;;;;;;;13.63;10.77;;;;;;;;;;5060510;28;20825;-69
2021/12/06 07:03:06;;;;;;;16.97;11.40;;;;;;;;;;5035855;28;20250;-68
2021/12/06 07:05:32;;;;;;;14.17;10.43;;;;;;;;;;5055384;28;20227;-68
2021/12/06 07:07:58;;;;;;;11.77;10.43;;;;;;;;;;5056980;28;20235;-68
2021/12/06 07:10:24;;;;;;;15.17;10.60;;;;;;;;;;5037112;28;20662;-68
2021/12/06 07:12:52;;;;;;;15.00;10.63;;;;;;;;;;5053835;28;20676;-69
2021/12/06 07:15:19;;;;;;;15.73;10.47;;;;;;;;;;5039404;28;20322;-68
2021/12/06 07:17:45;;;;;;;15.60;10.67;;;;;;;;;;5055890;28;20625;-69
2021/12/06 07:20:11;;;;;;;14.57;10.63;;;;;;;;;;5039381;28;20241;-69
2021/12/06 07:22:37;;;;;;;14.77;11.13;;;;;;;;;;5037091;28;20716;-68
2021/12/06 07:25:04;;;;;;;11.40;10.27;;;;;;;;;;5055874;28;20235;-68
2021/12/06 07:27:30;;;;;;;12.93;10.97;;;;;;;;;;5052702;28;20709;-69
2021/12/06 07:29:56;;;;;;;16.70;10.23;;;;;;;;;;5041229;28;20500;-67
2021/12/06 07:32:22;;;;;;;13.00;9.70;;;;;;;;;;5047451;28;20227;-68
2021/12/06 07:34:49;;;;;;;13.07;9.77;;;;;;;;;;5052486;28;21002;-69
2021/12/06 07:37:15;;;;;;;15.23;10.40;;;;;;;;;;5054825;28;20257;-69
2021/12/06 07:39:41;;;;;;;13.00;10.67;;;;;;;;;;5051634;28;20322;-69
2021/12/06 07:42:11;;;;;;;12.87;10.40;;;;;;;;;;5046254;28;20239;-69
2021/12/06 07:44:37;;;;;;;11.80;10.60;;;;;;;;;;5051848;28;20506;-67
2021/12/06 07:47:03;;;;;;;12.33;9.73;;;;;;;;;;5029578;28;20231;-68
2021/12/06 07:49:29;;;;;;;12.10;10.30;;;;;;;;;;5033064;28;20496;-69
2021/12/06 07:51:55;;;;;;;12.73;10.70;;;;;;;;;;5053755;28;20250;-69
2021/12/06 07:54:21;;;;;;;14.83;10.50;;;;;;;;;;5037317;28;20231;-69
2021/12/06 07:56:47;;;;;;;12.50;11.00;;;;;;;;;;5049911;28;20228;-69
2021/12/06 07:59:13;;;;;;;12.53;10.10;;;;;;;;;;5054009;28;20914;-69
2021/12/06 08:01:39;;;;;;;11.97;10.07;;;;;;;;;;5056510;28;20227;-69
2021/12/06 08:04:05;;;;;;;14.93;10.80;;;;;;;;;;5035684;28;20227;-68
2021/12/06 08:06:31;;;;;;;14.30;11.40;;;;;;;;;;5031881;28;20259;-69
2021/12/06 08:08:57;;;;;;;13.33;11.70;;;;;;;;;;5023016;28;20238;-68
2021/12/06 08:11:25;;;;;;;14.73;10.33;;;;;;;;;;5059118;28;20683;-69
2021/12/06 08:13:53;;;;;;;11.80;10.47;;;;;;;;;;5043858;28;20285;-69
2021/12/06 08:16:20;;;;;;;12.20;10.80;;;;;;;;;;5054087;28;20251;-68
2021/12/06 08:18:46;;;;;;;12.40;11.10;;;;;;;;;;5040160;28;20227;-69
2021/12/06 08:21:13;;;;;;;14.67;11.20;;;;;;;;;;5058062;28;20226;-68
2021/12/06 08:23:38;;;;;;;11.53;9.97;;;;;;;;;;5035607;28;20234;-68
2021/12/06 08:26:05;;;;;;;12.20;10.77;;;;;;;;;;5054409;28;20239;-69
2021/12/06 08:28:32;;;;;;;12.37;11.10;;;;;;;;;;5039975;28;20231;-68
2021/12/06 08:30:58;;;;;;;12.63;11.33;;;;;;;;;;5035304;28;20231;-68
2021/12/06 08:33:24;;;;;;;12.60;10.97;;;;;;;;;;5057411;28;20314;-68
2021/12/06 08:35:53;;;;;;;13.00;10.97;;;;;;;;;;5039023;28;20726;-69
2021/12/06 08:38:20;;;;;;;14.67;11.97;;;;;;;;;;5036480;28;20232;-67
2021/12/06 08:40:46;;;;;;;12.70;10.80;;;;;;;;;;5043124;28;20235;-68
2021/12/06 08:43:16;;;;;;;12.40;11.10;;;;;;;;;;5052816;28;20265;-68
2021/12/06 08:45:43;;;;;;;13.13;10.97;;;;;;;;;;5036560;28;20324;-68
2021/12/06 08:48:09;;;;;;;13.93;11.13;;;;;;;;;;5041640;28;20266;-69
2021/12/06 08:50:35;;;;;;;12.70;11.43;;;;;;;;;;5053058;28;20334;-68
2021/12/06 08:53:01;;;;;;;14.97;12.00;;;;;;;;;;5055333;28;20727;-69
2021/12/06 08:55:27;;;;;;;15.77;12.13;;;;;;;;;;5055456;28;20227;-69
2021/12/06 08:57:53;;;;;;;14.37;11.90;;;;;;;;;;5053761;28;20532;-69
2021/12/06 09:00:25;;;;;;;18.10;13.37;;;;;;;;;;5056773;28;20700;-68
2021/12/06 09:02:50;;;;;;;16.10;13.53;;;;;;;;;;5057018;28;20270;-69
2021/12/06 09:05:16;;;;;;;18.13;14.23;;;;;;;;;;5015442;28;20305;-68
2021/12/06 09:07:42;;;;;;;21.80;15.50;;;;;;;;;;5054624;28;20220;-68
2021/12/06 09:10:10;;;;;;;22.37;15.97;;;;;;;;;;5035754;28;20262;-69
2021/12/06 09:12:36;;;;;;;19.97;15.03;;;;;;;;;;5033552;28;20232;-67
2021/12/06 09:15:03;;;;;;;23.47;15.93;;;;;;;;;;5050108;28;20288;-69
2021/12/06 09:17:29;;;;;;;22.33;16.53;;;;;;;;;;5029552;28;20238;-68
2021/12/06 09:19:55;;;;;;;22.60;16.80;;;;;;;;;;5030596;28;20227;-69
2021/12/06 09:22:21;;;;;;;27.17;18.13;;;;;;;;;;5026557;28;20235;-69
2021/12/06 09:24:49;;;;;;;24.63;17.97;;;;;;;;;;5046351;28;20236;-69
2021/12/06 09:27:15;;;;;;;24.47;18.13;;;;;;;;;;5054433;28;20237;-69
2021/12/06 09:29:41;;;;;;;26.97;18.37;;;;;;;;;;5055227;28;20279;-68
2021/12/06 09:32:08;;;;;;;28.43;19.67;;;;;;;;;;5048015;28;20239;-68
2021/12/06 09:34:34;;;;;;;31.50;20.43;;;;;;;;;;5047233;28;20242;-68
2021/12/06 09:37:00;;;;;;;30.23;21.07;;;;;;;;;;5042549;28;20235;-67
2021/12/06 09:39:26;;;;;;;28.03;20.83;;;;;;;;;;5024042;28;20781;-69
2021/12/06 09:41:52;;;;;;;33.10;21.67;;;;;;;;;;5048115;28;20740;-69
2021/12/06 09:44:18;;;;;;;29.60;21.37;;;;;;;;;;5033839;28;20238;-68
2021/12/06 09:46:44;;;;;;;30.70;21.67;;;;;;;;;;5060769;28;20230;-69
2021/12/06 09:49:12;;;;;;;30.13;21.73;;;;;;;;;;5029855;28;20267;-70
2021/12/06 09:51:39;;;;;;;31.03;21.83;;;;;;;;;;5022765;28;20241;-68
2021/12/06 09:54:05;;;;;;;33.37;23.47;;;;;;;;;;5029891;28;20334;-69
2021/12/06 09:56:32;;;;;;;31.53;22.10;;;;;;;;;;5057667;28;20294;-68
2021/12/06 09:58:58;;;;;;;30.93;22.87;;;;;;;;;;5030479;28;20231;-68
2021/12/06 10:01:26;;;;;;;32.30;22.37;;;;;;;;;;5037884;28;20230;-69
2021/12/06 10:03:53;;;;;;;29.47;21.93;;;;;;;;;;5018102;28;20860;-69
2021/12/06 10:06:19;;;;;;;30.70;21.63;;;;;;;;;;5010959;28;20683;-69
2021/12/06 10:08:46;;;;;;;33.20;23.40;;;;;;;;;;5017114;28;20243;-69
2021/12/06 10:11:12;;;;;;;32.83;22.93;;;;;;;;;;5036293;28;21498;-69
2021/12/06 10:13:39;;;;;;;37.33;23.80;;;;;;;;;;5035450;28;20579;-68
2021/12/06 10:16:05;;;;;;;33.20;24.60;;;;;;;;;;5026722;28;20300;-68
2021/12/06 10:18:31;;;;;;;35.00;24.47;;;;;;;;;;5039531;28;20718;-69
2021/12/06 10:20:57;;;;;;;37.07;25.13;;;;;;;;;;5041681;28;20622;-69
2021/12/06 10:23:23;;;;;;;35.20;25.20;;;;;;;;;;5058010;28;20598;-70
2021/12/06 10:25:50;;;;;;;44.87;26.47;;;;;;;;;;5018377;28;20241;-68
2021/12/06 10:28:16;;;;;;;35.00;26.20;;;;;;;;;;5017491;28;20300;-69
2021/12/06 10:30:44;;;;;;;38.63;25.80;;;;;;;;;;5044987;28;20254;-69
2021/12/06 10:33:11;;;;;;;39.07;27.13;;;;;;;;;;5045059;28;20245;-69
2021/12/06 10:35:40;;;;;;;38.07;25.93;;;;;;;;;;5030734;28;20370;-69
2021/12/06 10:38:06;;;;;;;38.67;26.80;;;;;;;;;;5038615;28;20231;-69
2021/12/06 10:40:33;;;;;;;42.10;28.30;;;;;;;;;;5041951;28;20239;-69
2021/12/06 10:43:01;;;;;;;37.50;26.07;;;;;;;;;;5028112;28;20288;-68
2021/12/06 10:45:31;;;;;;;38.80;26.43;;;;;;;;;;5046027;28;20257;-67
2021/12/06 10:48:15;;;;;;;42.03;27.83;;;;;;;;;;5056436;28;20238;-66
2021/12/06 10:50:46;;;;;;;40.40;27.70;;;;;;;;;;5059958;28;20268;-66
2021/12/06 10:53:12;;;;;;;36.53;27.43;;;;;;;;;;5058355;28;20312;-67
2021/12/06 10:55:38;;;;;;;36.20;25.83;;;;;;;;;;5056083;28;20309;-68
2021/12/06 10:58:05;;;;;;;38.47;27.10;;;;;;;;;;5041871;28;20221;-67
2021/12/06 11:00:37;;;;;;;40.37;27.93;;;;;;;;;;5039533;28;20252;-67
2021/12/06 11:03:03;;;;;;;35.90;26.53;;;;;;;;;;5045217;28;20262;-66
2021/12/06 11:05:30;;;;;;;39.73;27.97;;;;;;;;;;5056562;28;21123;-66
2021/12/06 11:08:11;;;;;;;40.17;27.27;;;;;;;;;;5046281;28;20884;-67
2021/12/06 11:10:38;;;;;;;37.43;26.70;;;;;;;;;;5047759;28;20836;-67
2021/12/06 11:13:14;;;;;;;40.27;28.13;;;;;;;;;;4999713;28;23212;-67
2021/12/06 11:15:52;;;;;;;40.60;27.17;;;;;;;;;;5033216;28;20241;-67
2021/12/06 11:18:31;;;;;;;38.73;26.53;;;;;;;;;;5022442;28;20342;-67
2021/12/06 11:20:57;;;;;;;38.40;26.23;;;;;;;;;;5034502;28;20231;-67
2021/12/06 11:23:23;;;;;;;39.37;26.60;;;;;;;;;;5037657;28;20264;-67
2021/12/06 11:25:59;;;;;;;38.13;26.40;;;;;;;;;;5050672;28;20318;-66
2021/12/06 11:28:26;;;;;;;40.27;27.97;;;;;;;;;;5051302;28;21083;-67
2021/12/06 11:31:05;;;;;;;38.43;26.87;;;;;;;;;;5044006;28;20234;-67
2021/12/06 11:33:32;;;;;;;38.83;26.50;;;;;;;;;;5050499;28;20238;-67
2021/12/06 11:35:58;;;;;;;38.20;25.47;;;;;;;;;;5051313;28;20270;-66
2021/12/06 11:38:24;;;;;;;38.97;25.57;;;;;;;;;;5054619;28;20730;-66
2021/12/06 11:40:50;;;;;;;37.23;25.90;;;;;;;;;;5043782;28;20235;-66
2021/12/06 11:43:17;;;;;;;36.60;25.90;;;;;;;;;;5045365;28;20708;-67
2021/12/06 11:45:46;;;;;;;34.87;24.63;;;;;;;;;;5038793;28;20245;-67
2021/12/06 11:48:24;;;;;;;31.70;22.63;;;;;;;;;;5054825;28;20227;-66
2021/12/06 11:50:52;;;;;;;31.10;22.00;;;;;;;;;;5061871;28;20650;-66
2021/12/06 11:53:18;;;;;;;32.47;22.87;;;;;;;;;;5042248;28;20618;-66
2021/12/06 11:55:55;;;;;;;34.00;22.87;;;;;;;;;;5036015;28;20243;-67
2021/12/06 11:58:41;;;;;;;32.30;22.93;;;;;;;;;;5057539;28;20250;-66
2021/12/06 12:01:14;;;;;;;33.07;22.00;;;;;;;;;;5063034;28;20302;-67
2021/12/06 12:03:41;;;;;;;31.73;22.20;;;;;;;;;;5061456;28;20249;-66
2021/12/06 12:06:26;;;;;;;31.00;22.13;;;;;;;;;;5051204;28;20231;-67
2021/12/06 12:09:02;;;;;;;29.27;21.30;;;;;;;;;;5047702;28;20554;-67
2021/12/06 12:11:28;;;;;;;32.40;21.80;;;;;;;;;;5062031;28;21211;-67
2021/12/06 12:13:56;;;;;;;32.07;21.20;;;;;;;;;;5035166;28;20266;-67
2021/12/06 12:16:22;;;;;;;31.07;21.27;;;;;;;;;;5059448;28;20773;-67
2021/12/06 12:18:48;;;;;;;28.40;21.17;;;;;;;;;;5042155;28;20235;-67
2021/12/06 12:21:15;;;;;;;30.63;21.50;;;;;;;;;;5063881;28;20744;-66
2021/12/06 12:23:42;;;;;;;32.13;23.17;;;;;;;;;;5062102;28;20323;-67
2021/12/06 12:26:12;;;;;;;30.93;22.53;;;;;;;;;;5057414;28;20730;-66
2021/12/06 12:28:49;;;;;;;31.53;22.70;;;;;;;;;;5040526;28;20240;-67
2021/12/06 12:31:15;;;;;;;30.80;21.80;;;;;;;;;;5020780;28;20767;-67
2021/12/06 12:33:41;;;;;;;29.97;21.83;;;;;;;;;;5050508;28;20233;-66
2021/12/06 12:36:11;;;;;;;32.07;22.73;;;;;;;;;;5051314;28;21354;-66
2021/12/06 12:38:38;;;;;;;32.33;22.40;;;;;;;;;;5047704;28;20244;-67
2021/12/06 12:41:06;;;;;;;31.47;22.40;;;;;;;;;;5056505;28;20241;-67
2021/12/06 12:43:33;;;;;;;29.57;22.13;;;;;;;;;;5059794;28;20632;-67
2021/12/06 12:45:59;;;;;;;27.37;21.07;;;;;;;;;;5061743;28;20293;-67
2021/12/06 12:48:26;;;;;;;30.40;22.47;;;;;;;;;;5046401;28;20234;-67
2021/12/06 12:51:10;;;;;;;32.07;23.03;;;;;;;;;;5040799;28;20238;-67
2021/12/06 12:53:55;;;;;;;30.53;21.77;;;;;;;;;;5058968;28;20227;-67
2021/12/06 12:56:22;;;;;;;29.87;21.90;;;;;;;;;;5047351;28;20243;-67
2021/12/06 12:58:48;;;;;;;28.53;21.43;;;;;;;;;;5035104;28;20235;-67
2021/12/06 13:01:14;;;;;;;31.10;22.37;;;;;;;;;;5037761;28;20227;-66
2021/12/06 13:03:49;;;;;;;29.27;20.67;;;;;;;;;;5041457;28;22271;-67
2021/12/06 13:06:15;;;;;;;28.90;20.47;;;;;;;;;;5050579;28;20247;-67
2021/12/06 13:08:41;;;;;;;24.23;19.13;;;;;;;;;;5050041;28;20233;-67
2021/12/06 13:11:07;;;;;;;22.47;18.13;;;;;;;;;;5042251;28;20231;-67
2021/12/06 13:13:42;;;;;;;24.43;18.70;;;;;;;;;;5044766;28;20305;-66
2021/12/06 13:16:38;;;;;;;25.63;19.23;;;;;;;;;;5039571;28;20458;-67
2021/12/06 13:21:42;;;;;;;23.10;18.63;;;;;;;;;;5061788;28;20596;-67
2021/12/06 13:24:11;;;;;;;24.23;18.20;;;;;;;;;;5059145;28;20561;-67
2021/12/06 13:26:38;;;;;;;24.67;18.50;;;;;;;;;;5047688;28;23444;-68
2021/12/06 13:29:05;;;;;;;25.30;18.53;;;;;;;;;;5051258;28;20227;-66
2021/12/06 13:31:31;;;;;;;24.03;17.23;;;;;;;;;;5044134;28;20706;-67
2021/12/06 13:33:57;;;;;;;24.10;18.00;;;;;;;;;;5020751;28;20291;-67
2021/12/06 13:36:42;;;;;;;21.73;17.30;;;;;;;;;;5051095;28;20740;-67
2021/12/06 13:39:31;;;;;;;22.77;18.43;;;;;;;;;;5021700;28;20227;-67
2021/12/06 13:41:58;;;;;;;25.03;18.70;;;;;;;;;;5041637;28;20360;-67
2021/12/06 13:44:37;;;;;;;25.27;18.63;;;;;;;;;;5042840;28;20773;-68
2021/12/06 13:47:07;;;;;;;23.73;18.30;;;;;;;;;;5044065;28;20250;-67
2021/12/06 13:49:33;;;;;;;22.33;18.17;;;;;;;;;;5025444;28;20231;-66
2021/12/06 13:52:03;;;;;;;24.40;18.93;;;;;;;;;;5053852;28;20258;-67
2021/12/06 13:54:30;;;;;;;29.20;20.23;;;;;;;;;;5060695;28;20230;-67
2021/12/06 13:56:58;;;;;;;26.23;18.93;;;;;;;;;;5049043;28;20334;-68
2021/12/06 13:59:41;;;;;;;25.70;19.70;;;;;;;;;;5047318;28;20693;-67
2021/12/06 14:02:11;;;;;;;26.47;19.77;;;;;;;;;;5018031;28;20263;-67
2021/12/06 14:04:38;;;;;;;29.33;20.87;;;;;;;;;;5041959;28;20254;-68
2021/12/06 14:07:08;;;;;;;27.83;20.53;;;;;;;;;;5022040;28;20483;-67
2021/12/06 14:09:35;;;;;;;26.03;20.00;;;;;;;;;;5044444;28;20262;-68
2021/12/06 14:12:04;;;;;;;27.23;20.03;;;;;;;;;;5028802;28;20235;-67
2021/12/06 14:14:35;;;;;;;26.50;19.10;;;;;;;;;;5016266;28;20223;-67
2021/12/06 14:17:01;;;;;;;27.13;20.07;;;;;;;;;;5016345;28;20277;-68
2021/12/06 14:19:28;;;;;;;29.87;20.57;;;;;;;;;;5046562;28;20303;-66
2021/12/06 14:21:54;;;;;;;28.00;20.80;;;;;;;;;;5038127;28;20219;-66
2021/12/06 14:24:21;;;;;;;27.13;19.97;;;;;;;;;;5046619;28;20228;-66
2021/12/06 14:26:47;;;;;;;27.30;19.67;;;;;;;;;;5043839;28;20987;-68
2021/12/06 14:29:14;;;;;;;26.73;20.30;;;;;;;;;;5047703;28;21654;-67
2021/12/06 14:31:41;;;;;;;26.97;20.17;;;;;;;;;;5042538;28;20230;-68
2021/12/06 14:34:07;;;;;;;28.77;19.10;;;;;;;;;;5044909;28;20403;-67
2021/12/06 14:36:33;;;;;;;27.13;19.43;;;;;;;;;;5042399;28;20240;-67
2021/12/06 14:39:06;;;;;;;33.10;19.73;;;;;;;;;;5031475;28;20238;-67
2021/12/06 14:41:32;;;;;;;28.83;19.00;;;;;;;;;;5008467;28;20862;-66
2021/12/06 14:43:58;;;;;;;29.07;19.87;;;;;;;;;;5045074;28;20302;-65